KOFK/OFK METAR and TAF weather

Enter ICAO airport designator
Station Type Date Time Source
KOFK METAR 2018/12/13 19:56 UTC NOAA

KOFK 131956Z AUTO 34018G23KT 10SM CLR 03/M01 A3008 RMK AO2 SLP200 T00331011


Station Type Date Time Source
KOFK Decoded METAR 2018/12/13 19:56 UTC NOAA

KARL STEFAN MEMORIAL AIRPORT, NE, United States (KOFK) 41-59N 097-26W 470M
Dec 13, 2018 - 02:56 PM EST / 2018.12.13 1956 UTC
Wind: from the NNW (340 degrees) at 21 MPH (18 KT) gusting to 26 MPH (23 KT):0
Visibility: 10 mile(s):0
Sky conditions: clear
Temperature: 37.9 F (3.3 C)
Dew Point: 30.0 F (-1.1 C)
Relative Humidity: 72%
Pressure (altimeter): 30.08 in. Hg (1018 hPa)
ob: KOFK 131956Z AUTO 34018G23KT 10SM CLR 03/M01 A3008 RMK AO2 SLP200 T00331011
cycle: 20

Station Type Date Time Source
KOFK TAF 2018/12/13 18:36 UTC NOAA

TAF KOFK 131733Z 1318/1418 34018G28KT P6SM SCT015
TEMPO 1318/1319 OVC015
FM132200 34014KT P6SM FEW250
FM140000 33006KT P6SM SKC
FM141200 VRB02KT P6SM SCT250


Example: see airport list